sensor_id;sensor_type;location;lat;lon;timestamp;P1;durP1;ratioP1;P2;durP2;ratioP2
58756;SDS011;44527;47.460;19.016;2022-11-20T12:49:12;27.65;;;13.18;;
58756;SDS011;44527;47.460;19.016;2022-11-20T12:52:50;25.25;;;12.60;;
58756;SDS011;44527;47.460;19.016;2022-11-20T12:59:46;25.48;;;12.52;;
58756;SDS011;44527;47.460;19.016;2022-11-20T13:06:43;23.67;;;11.70;;
58756;SDS011;44527;47.460;19.016;2022-11-20T13:09:48;29.48;;;12.68;;
58756;SDS011;44527;47.460;19.016;2022-11-20T13:12:58;27.02;;;13.23;;
58756;SDS011;44527;47.460;19.016;2022-11-20T13:16:10;27.25;;;13.13;;
58756;SDS011;44527;47.460;19.016;2022-11-20T13:19:23;27.15;;;12.77;;
58756;SDS011;44527;47.460;19.016;2022-11-20T13:22:27;25.35;;;11.57;;
58756;SDS011;44527;47.460;19.016;2022-11-20T13:25:36;29.63;;;13.82;;
58756;SDS011;44527;47.460;19.016;2022-11-20T13:28:42;28.12;;;12.57;;
58756;SDS011;44527;47.460;19.016;2022-11-20T13:31:46;25.50;;;12.65;;
58756;SDS011;44527;47.460;19.016;2022-11-20T13:34:51;29.48;;;13.07;;
58756;SDS011;44527;47.460;19.016;2022-11-20T13:38:17;30.02;;;13.35;;
58756;SDS011;44527;47.460;19.016;2022-11-20T13:41:30;33.78;;;13.52;;
58756;SDS011;44527;47.460;19.016;2022-11-20T13:44:47;28.62;;;13.75;;
58756;SDS011;44527;47.460;19.016;2022-11-20T13:47:56;35.33;;;14.48;;
58756;SDS011;44527;47.460;19.016;2022-11-20T13:54:52;30.90;;;14.07;;
58756;SDS011;44527;47.460;19.016;2022-11-20T14:01:35;26.08;;;13.25;;
58756;SDS011;44527;47.460;19.016;2022-11-20T14:04:42;28.73;;;12.50;;
58756;SDS011;44527;47.460;19.016;2022-11-20T14:07:52;24.63;;;12.32;;
58756;SDS011;44527;47.460;19.016;2022-11-20T14:11:04;28.08;;;13.07;;
58756;SDS011;44527;47.460;19.016;2022-11-20T14:14:16;31.55;;;13.88;;
58756;SDS011;44527;47.460;19.016;2022-11-20T14:17:28;32.95;;;13.80;;
58756;SDS011;44527;47.460;19.016;2022-11-20T14:20:35;32.80;;;15.15;;
58756;SDS011;44527;47.460;19.016;2022-11-20T14:23:41;30.92;;;13.77;;
58756;SDS011;44527;47.460;19.016;2022-11-20T14:26:45;35.28;;;15.57;;
58756;SDS011;44527;47.460;19.016;2022-11-20T14:29:50;39.88;;;15.30;;
58756;SDS011;44527;47.460;19.016;2022-11-20T14:32:56;28.62;;;13.75;;
58756;SDS011;44527;47.460;19.016;2022-11-20T14:36:05;34.00;;;14.50;;
58756;SDS011;44527;47.460;19.016;2022-11-20T14:39:09;38.33;;;14.60;;
58756;SDS011;44527;47.460;19.016;2022-11-20T14:42:19;31.85;;;13.80;;
58756;SDS011;44527;47.460;19.016;2022-11-20T14:45:26;33.42;;;14.15;;
58756;SDS011;44527;47.460;19.016;2022-11-20T14:48:51;33.72;;;15.20;;
58756;SDS011;44527;47.460;19.016;2022-11-20T14:52:09;31.05;;;13.80;;
58756;SDS011;44527;47.460;19.016;2022-11-20T14:55:25;34.05;;;13.02;;
58756;SDS011;44527;47.460;19.016;2022-11-20T14:58:33;30.85;;;13.80;;
58756;SDS011;44527;47.460;19.016;2022-11-20T15:01:38;28.10;;;12.43;;
58756;SDS011;44527;47.460;19.016;2022-11-20T15:04:45;29.50;;;13.52;;
58756;SDS011;44527;47.460;19.016;2022-11-20T15:08:07;35.78;;;14.80;;
58756;SDS011;44527;47.460;19.016;2022-11-20T15:11:19;29.37;;;12.93;;
58756;SDS011;44527;47.460;19.016;2022-11-20T15:14:28;33.67;;;13.95;;
58756;SDS011;44527;47.460;19.016;2022-11-20T15:17:33;42.80;;;16.73;;
58756;SDS011;44527;47.460;19.016;2022-11-20T15:20:40;41.83;;;16.37;;
58756;SDS011;44527;47.460;19.016;2022-11-20T15:23:44;38.25;;;15.75;;
58756;SDS011;44527;47.460;19.016;2022-11-20T15:26:48;32.40;;;15.55;;
58756;SDS011;44527;47.460;19.016;2022-11-20T15:29:51;37.97;;;15.93;;
58756;SDS011;44527;47.460;19.016;2022-11-20T15:32:57;39.13;;;17.08;;
58756;SDS011;44527;47.460;19.016;2022-11-20T15:36:00;42.80;;;15.85;;
58756;SDS011;44527;47.460;19.016;2022-11-20T15:39:04;37.25;;;15.85;;
58756;SDS011;44527;47.460;19.016;2022-11-20T15:42:09;35.83;;;16.20;;
58756;SDS011;44527;47.460;19.016;2022-11-20T15:45:12;36.03;;;16.08;;
58756;SDS011;44527;47.460;19.016;2022-11-20T15:48:17;36.83;;;15.70;;
58756;SDS011;44527;47.460;19.016;2022-11-20T15:54:42;40.45;;;16.55;;
58756;SDS011;44527;47.460;19.016;2022-11-20T15:57:45;39.38;;;16.45;;
58756;SDS011;44527;47.460;19.016;2022-11-20T16:00:49;39.60;;;18.02;;
58756;SDS011;44527;47.460;19.016;2022-11-20T16:03:55;46.28;;;18.12;;
58756;SDS011;44527;47.460;19.016;2022-11-20T16:06:58;48.40;;;19.30;;
58756;SDS011;44527;47.460;19.016;2022-11-20T16:10:02;48.30;;;20.30;;
58756;SDS011;44527;47.460;19.016;2022-11-20T16:13:11;53.20;;;20.55;;
58756;SDS011;44527;47.460;19.016;2022-11-20T16:16:37;48.92;;;19.90;;
58756;SDS011;44527;47.460;19.016;2022-11-20T16:19:42;48.80;;;20.33;;
58756;SDS011;44527;47.460;19.016;2022-11-20T16:22:46;49.80;;;21.52;;
58756;SDS011;44527;47.460;19.016;2022-11-20T16:25:49;48.50;;;20.52;;
58756;SDS011;44527;47.460;19.016;2022-11-20T16:28:56;49.40;;;19.48;;
58756;SDS011;44527;47.460;19.016;2022-11-20T16:32:02;47.22;;;18.80;;
58756;SDS011;44527;47.460;19.016;2022-11-20T16:35:06;42.45;;;19.62;;
58756;SDS011;44527;47.460;19.016;2022-11-20T16:38:12;42.47;;;17.80;;
58756;SDS011;44527;47.460;19.016;2022-11-20T16:41:16;41.72;;;17.40;;
58756;SDS011;44527;47.460;19.016;2022-11-20T16:44:19;45.10;;;20.15;;
58756;SDS011;44527;47.460;19.016;2022-11-20T16:47:27;60.47;;;20.67;;
58756;SDS011;44527;47.460;19.016;2022-11-20T16:50:31;45.97;;;20.60;;
58756;SDS011;44527;47.460;19.016;2022-11-20T16:53:35;43.90;;;19.42;;
58756;SDS011;44527;47.460;19.016;2022-11-20T16:56:38;46.25;;;19.73;;
58756;SDS011;44527;47.460;19.016;2022-11-20T16:59:48;48.13;;;20.02;;
58756;SDS011;44527;47.460;19.016;2022-11-20T17:02:51;45.55;;;20.55;;
58756;SDS011;44527;47.460;19.016;2022-11-20T17:06:01;53.72;;;20.62;;
58756;SDS011;44527;47.460;19.016;2022-11-20T17:09:47;46.13;;;18.60;;
58756;SDS011;44527;47.460;19.016;2022-11-20T17:13:37;51.92;;;20.42;;
58756;SDS011;44527;47.460;19.016;2022-11-20T17:17:21;46.95;;;18.95;;
58756;SDS011;44527;47.460;19.016;2022-11-20T17:21:27;49.47;;;20.83;;
58756;SDS011;44527;47.460;19.016;2022-11-20T17:26:11;50.92;;;20.00;;
58756;SDS011;44527;47.460;19.016;2022-11-20T17:30:04;49.00;;;20.48;;
58756;SDS011;44527;47.460;19.016;2022-11-20T17:33:57;47.08;;;19.08;;
58756;SDS011;44527;47.460;19.016;2022-11-20T17:38:12;44.00;;;19.33;;
58756;SDS011;44527;47.460;19.016;2022-11-20T17:42:12;48.15;;;19.95;;
58756;SDS011;44527;47.460;19.016;2022-11-20T17:46:13;58.87;;;22.50;;
58756;SDS011;44527;47.460;19.016;2022-11-20T17:49:59;55.72;;;21.62;;
58756;SDS011;44527;47.460;19.016;2022-11-20T17:53:46;47.30;;;20.17;;
58756;SDS011;44527;47.460;19.016;2022-11-20T17:57:57;50.83;;;20.47;;
58756;SDS011;44527;47.460;19.016;2022-11-20T18:01:29;63.25;;;23.92;;
58756;SDS011;44527;47.460;19.016;2022-11-20T18:05:20;56.67;;;23.10;;
58756;SDS011;44527;47.460;19.016;2022-11-20T18:09:02;57.85;;;22.30;;
58756;SDS011;44527;47.460;19.016;2022-11-20T18:12:31;57.72;;;23.12;;
58756;SDS011;44527;47.460;19.016;2022-11-20T18:15:48;63.70;;;23.85;;
58756;SDS011;44527;47.460;19.016;2022-11-20T18:19:18;56.75;;;22.58;;
58756;SDS011;44527;47.460;19.016;2022-11-20T18:22:46;56.25;;;22.00;;
58756;SDS011;44527;47.460;19.016;2022-11-20T18:26:22;57.42;;;21.33;;
58756;SDS011;44527;47.460;19.016;2022-11-20T18:30:00;50.22;;;20.80;;
58756;SDS011;44527;47.460;19.016;2022-11-20T18:33:45;58.67;;;22.92;;
58756;SDS011;44527;47.460;19.016;2022-11-20T18:37:31;57.15;;;22.40;;
58756;SDS011;44527;47.460;19.016;2022-11-20T18:40:47;56.67;;;21.92;;
58756;SDS011;44527;47.460;19.016;2022-11-20T18:44:17;54.60;;;21.23;;
58756;SDS011;44527;47.460;19.016;2022-11-20T18:47:59;49.08;;;20.23;;
58756;SDS011;44527;47.460;19.016;2022-11-20T18:51:48;53.28;;;23.92;;
58756;SDS011;44527;47.460;19.016;2022-11-20T18:55:12;68.20;;;25.08;;
58756;SDS011;44527;47.460;19.016;2022-11-20T18:58:41;66.10;;;25.23;;
58756;SDS011;44527;47.460;19.016;2022-11-20T19:02:17;56.25;;;22.40;;
58756;SDS011;44527;47.460;19.016;2022-11-20T19:05:41;56.97;;;21.65;;
58756;SDS011;44527;47.460;19.016;2022-11-20T19:08:47;63.55;;;23.50;;
58756;SDS011;44527;47.460;19.016;2022-11-20T19:11:53;52.85;;;23.10;;
58756;SDS011;44527;47.460;19.016;2022-11-20T19:15:21;55.97;;;22.58;;
58756;SDS011;44527;47.460;19.016;2022-11-20T19:18:29;49.58;;;21.98;;
58756;SDS011;44527;47.460;19.016;2022-11-20T19:21:43;49.00;;;20.98;;
58756;SDS011;44527;47.460;19.016;2022-11-20T19:24:54;60.88;;;23.73;;
58756;SDS011;44527;47.460;19.016;2022-11-20T19:28:16;55.70;;;22.83;;
58756;SDS011;44527;47.460;19.016;2022-11-20T19:31:38;50.65;;;21.08;;
58756;SDS011;44527;47.460;19.016;2022-11-20T19:35:00;59.40;;;23.27;;
58756;SDS011;44527;47.460;19.016;2022-11-20T19:38:13;50.25;;;20.48;;
58756;SDS011;44527;47.460;19.016;2022-11-20T19:41:19;55.28;;;22.30;;
58756;SDS011;44527;47.460;19.016;2022-11-20T19:44:35;54.35;;;21.70;;
58756;SDS011;44527;47.460;19.016;2022-11-20T19:47:43;48.95;;;21.80;;
58756;SDS011;44527;47.460;19.016;2022-11-20T19:51:17;52.85;;;22.55;;
58756;SDS011;44527;47.460;19.016;2022-11-20T19:54:23;66.03;;;24.37;;
58756;SDS011;44527;47.460;19.016;2022-11-20T19:57:31;77.05;;;29.12;;
58756;SDS011;44527;47.460;19.016;2022-11-20T20:00:45;98.37;;;35.53;;
58756;SDS011;44527;47.460;19.016;2022-11-20T20:03:50;97.35;;;35.25;;
58756;SDS011;44527;47.460;19.016;2022-11-20T20:06:57;78.65;;;33.53;;
58756;SDS011;44527;47.460;19.016;2022-11-20T20:10:13;79.55;;;31.85;;
58756;SDS011;44527;47.460;19.016;2022-11-20T20:13:21;70.05;;;29.42;;
58756;SDS011;44527;47.460;19.016;2022-11-20T20:16:41;73.22;;;30.58;;
58756;SDS011;44527;47.460;19.016;2022-11-20T20:19:48;79.78;;;30.50;;
58756;SDS011;44527;47.460;19.016;2022-11-20T20:22:58;72.28;;;29.05;;
58756;SDS011;44527;47.460;19.016;2022-11-20T20:26:12;78.37;;;28.90;;
58756;SDS011;44527;47.460;19.016;2022-11-20T20:29:20;66.80;;;28.23;;
58756;SDS011;44527;47.460;19.016;2022-11-20T20:32:26;68.10;;;24.37;;
58756;SDS011;44527;47.460;19.016;2022-11-20T20:35:32;65.53;;;25.55;;
58756;SDS011;44527;47.460;19.016;2022-11-20T20:38:50;58.40;;;23.87;;
58756;SDS011;44527;47.460;19.016;2022-11-20T20:41:58;64.62;;;24.25;;
